sensor_id;sensor_type;location;lat;lon;timestamp;pressure;altitude;pressure_sealevel;temperature;humidity
32638;BME280;19045;52.268;10.506;2023-02-04T00:01:16;101672.72;;;5.40;100.00
32638;BME280;19045;52.268;10.506;2023-02-04T00:03:43;101685.78;;;5.35;100.00
32638;BME280;19045;52.268;10.506;2023-02-04T00:06:09;101693.94;;;5.27;100.00
32638;BME280;19045;52.268;10.506;2023-02-04T00:08:36;101706.38;;;5.19;100.00
32638;BME280;19045;52.268;10.506;2023-02-04T00:11:04;101718.97;;;5.11;100.00
32638;BME280;19045;52.268;10.506;2023-02-04T00:13:31;101719.78;;;5.11;100.00
32638;BME280;19045;52.268;10.506;2023-02-04T00:15:57;101731.44;;;5.10;100.00
32638;BME280;19045;52.268;10.506;2023-02-04T00:18:24;101720.72;;;5.04;100.00
32638;BME280;19045;52.268;10.506;2023-02-04T00:20:51;101742.16;;;4.96;100.00
32638;BME280;19045;52.268;10.506;2023-02-04T00:23:18;101747.22;;;4.91;100.00
32638;BME280;19045;52.268;10.506;2023-02-04T00:25:45;101747.97;;;4.85;100.00
32638;BME280;19045;52.268;10.506;2023-02-04T00:28:13;101756.59;;;4.87;100.00
32638;BME280;19045;52.268;10.506;2023-02-04T00:30:40;101775.16;;;4.80;100.00
32638;BME280;19045;52.268;10.506;2023-02-04T00:33:06;101773.31;;;4.81;100.00
32638;BME280;19045;52.268;10.506;2023-02-04T00:35:33;101772.22;;;4.75;100.00
32638;BME280;19045;52.268;10.506;2023-02-04T00:38:01;101775.44;;;4.71;100.00
32638;BME280;19045;52.268;10.506;2023-02-04T00:40:28;101771.78;;;4.57;98.81
32638;BME280;19045;52.268;10.506;2023-02-04T00:42:54;101797.84;;;4.47;98.05
32638;BME280;19045;52.268;10.506;2023-02-04T00:45:23;101797.94;;;4.39;96.92
32638;BME280;19045;52.268;10.506;2023-02-04T00:47:49;101802.78;;;4.35;97.20
32638;BME280;19045;52.268;10.506;2023-02-04T00:50:16;101805.91;;;4.39;97.59
32638;BME280;19045;52.268;10.506;2023-02-04T00:52:43;101803.25;;;4.39;97.93
32638;BME280;19045;52.268;10.506;2023-02-04T00:55:09;101815.25;;;4.35;98.04
32638;BME280;19045;52.268;10.506;2023-02-04T00:57:37;101822.13;;;4.29;98.29
32638;BME280;19045;52.268;10.506;2023-02-04T01:00:04;101831.94;;;4.29;98.18
32638;BME280;19045;52.268;10.506;2023-02-04T01:02:32;101835.28;;;4.31;98.14
32638;BME280;19045;52.268;10.506;2023-02-04T01:04:59;101842.06;;;4.33;96.54
32638;BME280;19045;52.268;10.506;2023-02-04T01:07:25;101863.88;;;4.29;95.31
32638;BME280;19045;52.268;10.506;2023-02-04T01:09:52;101855.72;;;4.30;94.88
32638;BME280;19045;52.268;10.506;2023-02-04T01:12:19;101858.19;;;4.32;94.79
32638;BME280;19045;52.268;10.506;2023-02-04T01:14:47;101871.38;;;4.25;95.34
32638;BME280;19045;52.268;10.506;2023-02-04T01:17:13;101876.22;;;4.22;95.45
32638;BME280;19045;52.268;10.506;2023-02-04T01:19:41;101886.34;;;4.26;94.62
32638;BME280;19045;52.268;10.506;2023-02-04T01:22:08;101888.28;;;4.32;93.75
32638;BME280;19045;52.268;10.506;2023-02-04T01:24:34;101896.34;;;4.24;93.62
32638;BME280;19045;52.268;10.506;2023-02-04T01:27:01;101905.00;;;4.18;93.16
32638;BME280;19045;52.268;10.506;2023-02-04T01:29:27;101902.94;;;4.05;94.04
32638;BME280;19045;52.268;10.506;2023-02-04T01:31:54;101918.63;;;4.00;94.42
32638;BME280;19045;52.268;10.506;2023-02-04T01:34:21;101925.22;;;4.04;94.08
32638;BME280;19045;52.268;10.506;2023-02-04T01:36:51;101926.28;;;3.95;93.94
32638;BME280;19045;52.268;10.506;2023-02-04T01:39:18;101940.25;;;3.97;94.12
32638;BME280;19045;52.268;10.506;2023-02-04T01:41:44;101947.50;;;4.03;93.34
32638;BME280;19045;52.268;10.506;2023-02-04T01:44:11;101952.16;;;4.01;93.15
32638;BME280;19045;52.268;10.506;2023-02-04T01:46:37;101962.63;;;4.03;92.40
32638;BME280;19045;52.268;10.506;2023-02-04T01:49:05;101968.13;;;4.01;92.90
32638;BME280;19045;52.268;10.506;2023-02-04T01:51:32;101985.94;;;4.01;92.46
32638;BME280;19045;52.268;10.506;2023-02-04T01:54:01;101980.41;;;4.02;92.54
32638;BME280;19045;52.268;10.506;2023-02-04T01:56:29;101989.22;;;4.03;92.38
32638;BME280;19045;52.268;10.506;2023-02-04T01:58:57;101996.25;;;3.96;92.59
32638;BME280;19045;52.268;10.506;2023-02-04T02:01:35;101993.41;;;3.97;92.75
32638;BME280;19045;52.268;10.506;2023-02-04T02:04:03;102003.94;;;3.91;92.30
32638;BME280;19045;52.268;10.506;2023-02-04T02:06:30;102008.75;;;3.87;92.82
32638;BME280;19045;52.268;10.506;2023-02-04T02:08:57;102015.78;;;3.80;94.04
32638;BME280;19045;52.268;10.506;2023-02-04T02:11:25;102009.66;;;3.72;94.85
32638;BME280;19045;52.268;10.506;2023-02-04T02:13:53;102019.94;;;3.75;94.43
32638;BME280;19045;52.268;10.506;2023-02-04T02:16:19;102025.47;;;3.65;95.33
32638;BME280;19045;52.268;10.506;2023-02-04T02:18:46;102020.50;;;3.62;95.17
32638;BME280;19045;52.268;10.506;2023-02-04T02:21:13;102023.19;;;3.54;95.68
32638;BME280;19045;52.268;10.506;2023-02-04T02:23:47;102028.66;;;3.52;95.17
32638;BME280;19045;52.268;10.506;2023-02-04T02:26:15;102032.69;;;3.40;95.75
32638;BME280;19045;52.268;10.506;2023-02-04T02:28:42;102026.41;;;3.33;95.97
32638;BME280;19045;52.268;10.506;2023-02-04T02:31:09;102030.25;;;3.31;96.06
32638;BME280;19045;52.268;10.506;2023-02-04T02:33:36;102043.72;;;3.21;96.66
32638;BME280;19045;52.268;10.506;2023-02-04T02:36:03;102044.34;;;3.15;97.82
32638;BME280;19045;52.268;10.506;2023-02-04T02:38:31;102056.97;;;3.13;97.77
32638;BME280;19045;52.268;10.506;2023-02-04T02:40:59;102060.97;;;3.09;98.31
32638;BME280;19045;52.268;10.506;2023-02-04T02:43:27;102062.81;;;3.00;98.84
32638;BME280;19045;52.268;10.506;2023-02-04T02:45:56;102076.56;;;2.96;98.54
32638;BME280;19045;52.268;10.506;2023-02-04T02:48:24;102060.50;;;2.89;99.20
32638;BME280;19045;52.268;10.506;2023-02-04T02:50:50;102077.91;;;2.84;99.61
32638;BME280;19045;52.268;10.506;2023-02-04T02:53:19;102088.19;;;2.87;100.00
32638;BME280;19045;52.268;10.506;2023-02-04T02:55:46;102084.72;;;2.86;100.00
32638;BME280;19045;52.268;10.506;2023-02-04T02:58:23;102091.34;;;2.90;99.95
32638;BME280;19045;52.268;10.506;2023-02-04T03:00:51;102095.66;;;2.91;99.65
32638;BME280;19045;52.268;10.506;2023-02-04T03:03:20;102094.34;;;2.87;100.00
32638;BME280;19045;52.268;10.506;2023-02-04T03:05:51;102095.31;;;2.86;99.18
32638;BME280;19045;52.268;10.506;2023-02-04T03:08:19;102097.00;;;2.87;99.21
32638;BME280;19045;52.268;10.506;2023-02-04T03:10:47;102118.03;;;2.89;99.34
32638;BME280;19045;52.268;10.506;2023-02-04T03:13:15;102124.53;;;2.94;99.30
32638;BME280;19045;52.268;10.506;2023-02-04T03:15:44;102126.16;;;2.79;99.39
32638;BME280;19045;52.268;10.506;2023-02-04T03:18:13;102134.78;;;2.73;99.71
32638;BME280;19045;52.268;10.506;2023-02-04T03:20:40;102137.44;;;2.73;99.14
32638;BME280;19045;52.268;10.506;2023-02-04T03:23:07;102135.91;;;2.63;99.94
32638;BME280;19045;52.268;10.506;2023-02-04T03:25:33;102150.19;;;2.62;100.00
32638;BME280;19045;52.268;10.506;2023-02-04T03:28:00;102151.50;;;2.57;100.00
32638;BME280;19045;52.268;10.506;2023-02-04T03:30:28;102167.75;;;2.54;100.00
32638;BME280;19045;52.268;10.506;2023-02-04T03:32:55;102174.19;;;2.52;100.00
32638;BME280;19045;52.268;10.506;2023-02-04T03:35:22;102175.53;;;2.56;100.00
32638;BME280;19045;52.268;10.506;2023-02-04T03:37:48;102183.81;;;2.53;100.00
32638;BME280;19045;52.268;10.506;2023-02-04T03:40:15;102177.84;;;2.51;100.00
32638;BME280;19045;52.268;10.506;2023-02-04T03:42:42;102182.31;;;2.50;100.00
32638;BME280;19045;52.268;10.506;2023-02-04T03:45:09;102191.44;;;2.56;100.00
32638;BME280;19045;52.268;10.506;2023-02-04T03:47:37;102205.22;;;2.51;100.00
32638;BME280;19045;52.268;10.506;2023-02-04T03:50:04;102210.94;;;2.39;100.00
32638;BME280;19045;52.268;10.506;2023-02-04T03:52:31;102218.75;;;2.40;100.00
32638;BME280;19045;52.268;10.506;2023-02-04T03:54:58;102218.25;;;2.37;100.00
32638;BME280;19045;52.268;10.506;2023-02-04T03:57:24;102223.84;;;2.34;100.00
32638;BME280;19045;52.268;10.506;2023-02-04T03:59:51;102235.09;;;2.28;100.00
32638;BME280;19045;52.268;10.506;2023-02-04T04:02:17;102238.59;;;2.28;100.00
32638;BME280;19045;52.268;10.506;2023-02-04T04:04:45;102235.25;;;2.26;100.00
32638;BME280;19045;52.268;10.506;2023-02-04T04:07:12;102236.09;;;2.27;100.00
32638;BME280;19045;52.268;10.506;2023-02-04T04:09:38;102254.50;;;2.28;100.00
32638;BME280;19045;52.268;10.506;2023-02-04T04:12:05;102254.13;;;2.23;100.00
32638;BME280;19045;52.268;10.506;2023-02-04T04:14:31;102262.09;;;2.23;100.00
32638;BME280;19045;52.268;10.506;2023-02-04T04:16:58;102264.69;;;2.15;100.00
32638;BME280;19045;52.268;10.506;2023-02-04T04:19:25;102261.56;;;2.20;100.00
32638;BME280;19045;52.268;10.506;2023-02-04T04:21:52;102282.03;;;2.09;100.00
32638;BME280;19045;52.268;10.506;2023-02-04T04:24:19;102280.97;;;1.94;100.00
32638;BME280;19045;52.268;10.506;2023-02-04T04:26:46;102294.13;;;1.86;100.00
32638;BME280;19045;52.268;10.506;2023-02-04T04:29:12;102296.25;;;1.83;100.00
32638;BME280;19045;52.268;10.506;2023-02-04T04:31:39;102299.53;;;1.77;100.00
32638;BME280;19045;52.268;10.506;2023-02-04T04:34:05;102302.72;;;1.80;100.00
32638;BME280;19045;52.268;10.506;2023-02-04T04:36:32;102305.03;;;1.83;100.00
32638;BME280;19045;52.268;10.506;2023-02-04T04:39:00;102309.59;;;1.73;100.00
32638;BME280;19045;52.268;10.506;2023-02-04T04:41:26;102318.16;;;1.85;100.00
32638;BME280;19045;52.268;10.506;2023-02-04T04:43:53;102314.00;;;1.82;100.00
32638;BME280;19045;52.268;10.506;2023-02-04T04:46:20;102316.13;;;1.61;100.00
32638;BME280;19045;52.268;10.506;2023-02-04T04:48:46;102318.16;;;1.67;100.00
32638;BME280;19045;52.268;10.506;2023-02-04T04:51:13;102322.25;;;1.62;100.00
32638;BME280;19045;52.268;10.506;2023-02-04T04:53:39;102332.47;;;1.56;100.00
32638;BME280;19045;52.268;10.506;2023-02-04T04:56:07;102334.66;;;1.43;100.00
32638;BME280;19045;52.268;10.506;2023-02-04T04:58:34;102335.44;;;1.36;100.00
32638;BME280;19045;52.268;10.506;2023-02-04T05:01:00;102334.66;;;1.43;100.00
32638;BME280;19045;52.268;10.506;2023-02-04T05:03:27;102338.56;;;1.39;100.00
32638;BME280;19045;52.268;10.506;2023-02-04T05:05:54;102348.50;;;1.37;100.00
32638;BME280;19045;52.268;10.506;2023-02-04T05:08:20;102351.81;;;1.39;100.00
32638;BME280;19045;52.268;10.506;2023-02-04T05:10:47;102361.53;;;1.48;100.00
32638;BME280;19045;52.268;10.506;2023-02-04T05:13:15;102371.22;;;1.58;100.00
32638;BME280;19045;52.268;10.506;2023-02-04T05:15:42;102369.09;;;1.61;100.00
32638;BME280;19045;52.268;10.506;2023-02-04T05:18:08;102369.09;;;1.61;100.00
32638;BME280;19045;52.268;10.506;2023-02-04T05:20:35;102366.00;;;1.66;100.00
32638;BME280;19045;52.268;10.506;2023-02-04T05:23:02;102379.75;;;1.69;100.00
32638;BME280;19045;52.268;10.506;2023-02-04T05:25:28;102382.94;;;1.73;100.00
32638;BME280;19045;52.268;10.506;2023-02-04T05:27:55;102371.22;;;1.75;100.00
32638;BME280;19045;52.268;10.506;2023-02-04T05:30:23;102371.44;;;1.82;100.00
32638;BME280;19045;52.268;10.506;2023-02-04T05:32:50;102364.56;;;1.89;100.00
32638;BME280;19045;52.268;10.506;2023-02-04T05:35:17;102368.47;;;2.02;100.00
32638;BME280;19045;52.268;10.506;2023-02-04T05:37:44;102371.53;;;2.16;100.00
32638;BME280;19045;52.268;10.506;2023-02-04T05:40:11;102370.94;;;2.22;100.00
32638;BME280;19045;52.268;10.506;2023-02-04T05:42:38;102384.03;;;2.23;100.00
32638;BME280;19045;52.268;10.506;2023-02-04T05:45:06;102386.06;;;2.29;100.00
32638;BME280;19045;52.268;10.506;2023-02-04T05:47:36;102393.78;;;2.40;100.00
32638;BME280;19045;52.268;10.506;2023-02-04T05:50:03;102403.19;;;2.35;100.00
32638;BME280;19045;52.268;10.506;2023-02-04T05:52:30;102407.81;;;2.33;100.00
32638;BME280;19045;52.268;10.506;2023-02-04T05:54:57;102410.41;;;2.25;100.00
32638;BME280;19045;52.268;10.506;2023-02-04T05:57:24;102416.91;;;2.13;100.00
32638;BME280;19045;52.268;10.506;2023-02-04T05:59:51;102429.19;;;2.14;100.00
32638;BME280;19045;52.268;10.506;2023-02-04T06:02:17;102436.75;;;2.26;100.00
32638;BME280;19045;52.268;10.506;2023-02-04T06:04:45;102430.63;;;2.26;100.00
32638;BME280;19045;52.268;10.506;2023-02-04T06:07:12;102446.00;;;2.22;100.00
32638;BME280;19045;52.268;10.506;2023-02-04T06:09:38;102444.13;;;2.15;100.00
32638;BME280;19045;52.268;10.506;2023-02-04T06:12:05;102443.81;;;2.18;100.00
32638;BME280;19045;52.268;10.506;2023-02-04T06:14:32;102450.94;;;2.17;100.00
32638;BME280;19045;52.268;10.506;2023-02-04T06:16:58;102458.56;;;2.20;100.00
32638;BME280;19045;52.268;10.506;2023-02-04T06:19:25;102469.56;;;2.25;100.00
32638;BME280;19045;52.268;10.506;2023-02-04T06:21:54;102472.06;;;2.27;100.00
32638;BME280;19045;52.268;10.506;2023-02-04T06:24:21;102479.03;;;2.28;100.00
32638;BME280;19045;52.268;10.506;2023-02-04T06:26:47;102476.44;;;2.36;100.00
32638;BME280;19045;52.268;10.506;2023-02-04T06:29:14;102477.19;;;2.46;100.00
32638;BME280;19045;52.268;10.506;2023-02-04T06:31:40;102487.47;;;2.49;100.00
32638;BME280;19045;52.268;10.506;2023-02-04T06:34:08;102487.78;;;2.46;100.00
32638;BME280;19045;52.268;10.506;2023-02-04T06:36:35;102486.69;;;2.48;100.00
32638;BME280;19045;52.268;10.506;2023-02-04T06:39:03;102486.38;;;2.51;100.00
32638;BME280;19045;52.268;10.506;2023-02-04T06:41:30;102495.53;;;2.57;100.00
32638;BME280;19045;52.268;10.506;2023-02-04T06:43:56;102491.94;;;2.66;100.00
32638;BME280;19045;52.268;10.506;2023-02-04T06:46:23;102497.72;;;2.62;100.00
32638;BME280;19045;52.268;10.506;2023-02-04T06:48:49;102490.34;;;2.55;100.00
32638;BME280;19045;52.268;10.506;2023-02-04T06:51:16;102499.41;;;2.45;100.00
32638;BME280;19045;52.268;10.506;2023-02-04T06:53:42;102494.84;;;2.37;100.00
32638;BME280;19045;52.268;10.506;2023-02-04T06:56:11;102502.50;;;2.40;100.00
32638;BME280;19045;52.268;10.506;2023-02-04T06:58:38;102505.59;;;2.36;100.00
32638;BME280;19045;52.268;10.506;2023-02-04T07:01:05;102506.63;;;2.35;100.00
32638;BME280;19045;52.268;10.506;2023-02-04T07:03:32;102511.91;;;2.35;100.00
32638;BME280;19045;52.268;10.506;2023-02-04T07:05:59;102518.81;;;2.28;100.00
32638;BME280;19045;52.268;10.506;2023-02-04T07:08:25;102524.19;;;2.18;100.00
32638;BME280;19045;52.268;10.506;2023-02-04T07:10:52;102522.81;;;2.14;100.00
32638;BME280;19045;52.268;10.506;2023-02-04T07:13:20;102520.47;;;2.11;100.00
32638;BME280;19045;52.268;10.506;2023-02-04T07:15:46;102530.00;;;2.04;100.00
32638;BME280;19045;52.268;10.506;2023-02-04T07:18:14;102534.69;;;2.10;100.00
32638;BME280;19045;52.268;10.506;2023-02-04T07:20:40;102539.16;;;2.09;100.00
32638;BME280;19045;52.268;10.506;2023-02-04T07:23:07;102543.84;;;2.16;100.00
32638;BME280;19045;52.268;10.506;2023-02-04T07:25:33;102548.59;;;2.22;100.00
32638;BME280;19045;52.268;10.506;2023-02-04T07:28:00;102555.41;;;2.24;100.00
32638;BME280;19045;52.268;10.506;2023-02-04T07:30:30;102558.88;;;2.25;100.00
32638;BME280;19045;52.268;10.506;2023-02-04T07:32:57;102560.22;;;2.29;100.00
32638;BME280;19045;52.268;10.506;2023-02-04T07:35:24;102562.59;;;2.32;100.00
32638;BME280;19045;52.268;10.506;2023-02-04T07:37:50;102565.50;;;2.38;100.00
32638;BME280;19045;52.268;10.506;2023-02-04T07:40:17;102577.44;;;2.42;100.00
32638;BME280;19045;52.268;10.506;2023-02-04T07:42:44;102573.81;;;2.61;100.00
32638;BME280;19045;52.268;10.506;2023-02-04T07:45:10;102581.59;;;2.80;100.00
32638;BME280;19045;52.268;10.506;2023-02-04T07:47:38;102583.00;;;3.10;98.90
32638;BME280;19045;52.268;10.506;2023-02-04T07:50:05;102590.44;;;3.32;98.83
32638;BME280;19045;52.268;10.506;2023-02-04T07:52:32;102589.75;;;3.56;97.01
32638;BME280;19045;52.268;10.506;2023-02-04T07:54:58;102594.72;;;3.85;96.39
32638;BME280;19045;52.268;10.506;2023-02-04T07:57:25;102604.81;;;4.15;93.35
32638;BME280;19045;52.268;10.506;2023-02-04T07:59:51;102608.53;;;4.38;91.73
32638;BME280;19045;52.268;10.506;2023-02-04T08:02:18;102613.38;;;4.51;90.83
32638;BME280;19045;52.268;10.506;2023-02-04T08:04:46;102622.53;;;4.56;89.86
32638;BME280;19045;52.268;10.506;2023-02-04T08:07:12;102622.03;;;4.53;88.41
32638;BME280;19045;52.268;10.506;2023-02-04T08:09:39;102628.69;;;4.49;87.70
32638;BME280;19045;52.268;10.506;2023-02-04T08:12:06;102626.66;;;4.43;88.37
32638;BME280;19045;52.268;10.506;2023-02-04T08:14:32;102629.66;;;4.48;88.38
32638;BME280;19045;52.268;10.506;2023-02-04T08:16:59;102633.69;;;4.60;88.71
32638;BME280;19045;52.268;10.506;2023-02-04T08:19:25;102644.38;;;4.84;88.31
32638;BME280;19045;52.268;10.506;2023-02-04T08:21:53;102637.56;;;5.06;86.54
32638;BME280;19045;52.268;10.506;2023-02-04T08:24:20;102647.22;;;5.07;84.41
32638;BME280;19045;52.268;10.506;2023-02-04T08:26:50;102645.88;;;5.19;84.94
32638;BME280;19045;52.268;10.506;2023-02-04T08:29:17;102643.94;;;5.92;82.24
32638;BME280;19045;52.268;10.506;2023-02-04T08:31:43;102641.31;;;7.22;76.20
32638;BME280;19045;52.268;10.506;2023-02-04T08:34:12;102639.03;;;8.51;69.38
32638;BME280;19045;52.268;10.506;2023-02-04T08:36:38;102643.59;;;9.42;63.98
32638;BME280;19045;52.268;10.506;2023-02-04T08:39:06;102640.91;;;10.51;62.11
32638;BME280;19045;52.268;10.506;2023-02-04T08:41:33;102642.44;;;11.65;55.31
32638;BME280;19045;52.268;10.506;2023-02-04T08:44:01;102650.25;;;12.51;52.43
32638;BME280;19045;52.268;10.506;2023-02-04T08:46:30;102649.97;;;12.96;50.41
32638;BME280;19045;52.268;10.506;2023-02-04T08:48:58;102648.59;;;13.19;48.99
32638;BME280;19045;52.268;10.506;2023-02-04T08:51:25;102662.03;;;12.94;47.96
32638;BME280;19045;52.268;10.506;2023-02-04T08:53:52;102668.34;;;13.13;48.44
32638;BME280;19045;52.268;10.506;2023-02-04T08:56:20;102667.75;;;13.60;47.69
32638;BME280;19045;52.268;10.506;2023-02-04T08:58:47;102662.06;;;13.86;46.34
32638;BME280;19045;52.268;10.506;2023-02-04T09:01:14;102669.75;;;14.44;44.49
32638;BME280;19045;52.268;10.506;2023-02-04T09:03:41;102673.53;;;14.73;44.09
32638;BME280;19045;52.268;10.506;2023-02-04T09:06:07;102677.97;;;14.67;43.58
32638;BME280;19045;52.268;10.506;2023-02-04T09:08:34;102668.50;;;15.29;42.54
32638;BME280;19045;52.268;10.506;2023-02-04T09:11:00;102672.66;;;15.90;41.02
32638;BME280;19045;52.268;10.506;2023-02-04T09:13:28;102670.22;;;16.40;40.05
32638;BME280;19045;52.268;10.506;2023-02-04T09:15:55;102671.53;;;17.11;38.73
32638;BME280;19045;52.268;10.506;2023-02-04T09:18:22;102673.81;;;18.02;37.26
32638;BME280;19045;52.268;10.506;2023-02-04T09:20:51;102670.88;;;19.00;35.06
32638;BME280;19045;52.268;10.506;2023-02-04T09:23:18;102678.66;;;19.50;33.61
32638;BME280;19045;52.268;10.506;2023-02-04T09:25:45;102680.28;;;19.88;32.78
32638;BME280;19045;52.268;10.506;2023-02-04T09:28:12;102681.69;;;20.48;32.21
32638;BME280;19045;52.268;10.506;2023-02-04T09:30:44;102685.09;;;20.23;32.13
32638;BME280;19045;52.268;10.506;2023-02-04T09:33:12;102687.47;;;20.72;30.07
32638;BME280;19045;52.268;10.506;2023-02-04T09:35:39;102677.59;;;20.50;30.34
32638;BME280;19045;52.268;10.506;2023-02-04T09:38:06;102699.25;;;20.77;30.83
32638;BME280;19045;52.268;10.506;2023-02-04T09:40:35;102702.06;;;21.43;29.30
32638;BME280;19045;52.268;10.506;2023-02-04T09:43:04;102695.44;;;20.98;30.36
32638;BME280;19045;52.268;10.506;2023-02-04T09:45:32;102696.25;;;22.00;29.43
32638;BME280;19045;52.268;10.506;2023-02-04T09:48:03;102695.09;;;23.19;27.77
32638;BME280;19045;52.268;10.506;2023-02-04T09:50:31;102695.53;;;23.89;26.42
32638;BME280;19045;52.268;10.506;2023-02-04T09:53:00;102700.47;;;24.39;25.91
32638;BME280;19045;52.268;10.506;2023-02-04T09:55:30;102715.53;;;24.42;25.80
32638;BME280;19045;52.268;10.506;2023-02-04T09:57:57;102712.72;;;23.08;26.50
32638;BME280;19045;52.268;10.506;2023-02-04T10:00:28;102719.56;;;23.49;27.05
32638;BME280;19045;52.268;10.506;2023-02-04T10:02:56;102722.69;;;23.28;26.70
32638;BME280;19045;52.268;10.506;2023-02-04T10:05:30;102726.22;;;23.67;25.76
32638;BME280;19045;52.268;10.506;2023-02-04T10:07:57;102728.06;;;23.77;26.22
32638;BME280;19045;52.268;10.506;2023-02-04T10:10:25;102721.34;;;23.88;26.32
32638;BME280;19045;52.268;10.506;2023-02-04T10:12:57;102718.16;;;23.13;26.22
32638;BME280;19045;52.268;10.506;2023-02-04T10:15:25;102713.91;;;22.92;26.52
32638;BME280;19045;52.268;10.506;2023-02-04T10:17:54;102716.16;;;24.15;25.37
32638;BME280;19045;52.268;10.506;2023-02-04T10:20:23;102720.53;;;25.33;24.62
32638;BME280;19045;52.268;10.506;2023-02-04T10:22:53;102720.97;;;26.82;23.17
32638;BME280;19045;52.268;10.506;2023-02-04T10:25:22;102727.31;;;25.87;23.99
32638;BME280;19045;52.268;10.506;2023-02-04T10:27:50;102717.56;;;27.20;22.74
32638;BME280;19045;52.268;10.506;2023-02-04T10:30:22;102725.69;;;26.67;22.46
32638;BME280;19045;52.268;10.506;2023-02-04T10:32:50;102717.88;;;27.19;22.44
32638;BME280;19045;52.268;10.506;2023-02-04T10:35:19;102723.16;;;28.13;20.93
32638;BME280;19045;52.268;10.506;2023-02-04T10:37:46;102732.44;;;28.82;20.57
32638;BME280;19045;52.268;10.506;2023-02-04T10:40:30;102738.63;;;29.31;20.10
32638;BME280;19045;52.268;10.506;2023-02-04T10:42:57;102735.38;;;30.30;19.48
32638;BME280;19045;52.268;10.506;2023-02-04T10:45:26;102727.53;;;31.23;19.29
32638;BME280;19045;52.268;10.506;2023-02-04T10:47:54;102724.84;;;32.41;18.17
32638;BME280;19045;52.268;10.506;2023-02-04T10:50:22;102738.72;;;31.93;17.99
32638;BME280;19045;52.268;10.506;2023-02-04T10:52:51;102748.81;;;25.71;22.19
32638;BME280;19045;52.268;10.506;2023-02-04T10:55:22;102754.28;;;21.67;26.14
32638;BME280;19045;52.268;10.506;2023-02-04T10:57:51;102750.97;;;18.56;30.18
32638;BME280;19045;52.268;10.506;2023-02-04T11:00:19;102752.31;;;16.35;33.37
32638;BME280;19045;52.268;10.506;2023-02-04T11:02:55;102752.06;;;15.14;35.16
32638;BME280;19045;52.268;10.506;2023-02-04T11:05:24;102753.63;;;14.19;37.12
32638;BME280;19045;52.268;10.506;2023-02-04T11:07:54;102757.72;;;12.91;39.77
32638;BME280;19045;52.268;10.506;2023-02-04T11:10:23;102750.91;;;12.31;41.38
32638;BME280;19045;52.268;10.506;2023-02-04T11:13:05;102749.03;;;13.77;39.90
32638;BME280;19045;52.268;10.506;2023-02-04T11:15:41;102747.56;;;14.24;38.15
32638;BME280;19045;52.268;10.506;2023-02-04T11:18:11;102749.00;;;13.59;38.39
32638;BME280;19045;52.268;10.506;2023-02-04T11:20:39;102749.13;;;12.57;40.10
32638;BME280;19045;52.268;10.506;2023-02-04T11:23:29;102752.19;;;12.16;41.51
32638;BME280;19045;52.268;10.506;2023-02-04T11:26:05;102753.66;;;12.63;41.93
32638;BME280;19045;52.268;10.506;2023-02-04T11:28:48;102749.22;;;19.15;32.93
32638;BME280;19045;52.268;10.506;2023-02-04T11:31:29;102750.09;;;24.66;25.45
32638;BME280;19045;52.268;10.506;2023-02-04T11:34:10;102749.03;;;21.04;26.88
32638;BME280;19045;52.268;10.506;2023-02-04T11:36:56;102752.38;;;21.47;28.32
32638;BME280;19045;52.268;10.506;2023-02-04T11:39:30;102750.50;;;25.99;23.33
32638;BME280;19045;52.268;10.506;2023-02-04T11:41:58;102755.06;;;30.08;20.07
32638;BME280;19045;52.268;10.506;2023-02-04T11:44:26;102755.97;;;32.83;17.81
32638;BME280;19045;52.268;10.506;2023-02-04T11:46:54;102751.91;;;34.93;16.25
32638;BME280;19045;52.268;10.506;2023-02-04T11:49:24;102747.16;;;36.00;15.69
32638;BME280;19045;52.268;10.506;2023-02-04T11:52:03;102747.97;;;37.46;14.98
32638;BME280;19045;52.268;10.506;2023-02-04T11:54:33;102751.44;;;36.99;14.93
32638;BME280;19045;52.268;10.506;2023-02-04T11:57:00;102751.50;;;33.06;16.75
32638;BME280;19045;52.268;10.506;2023-02-04T11:59:28;102766.34;;;26.48;20.76
32638;BME280;19045;52.268;10.506;2023-02-04T12:02:03;102764.66;;;23.96;23.05
32638;BME280;19045;52.268;10.506;2023-02-04T12:04:30;102770.50;;;22.67;24.64
32638;BME280;19045;52.268;10.506;2023-02-04T12:06:58;102764.16;;;21.52;26.22
32638;BME280;19045;52.268;10.506;2023-02-04T12:09:25;102756.00;;;20.60;27.66
32638;BME280;19045;52.268;10.506;2023-02-04T12:11:55;102750.16;;;19.57;28.67
32638;BME280;19045;52.268;10.506;2023-02-04T12:14:30;102750.69;;;18.14;30.03
32638;BME280;19045;52.268;10.506;2023-02-04T12:16:57;102758.78;;;15.65;33.41
32638;BME280;19045;52.268;10.506;2023-02-04T12:19:23;102765.06;;;14.76;34.98
32638;BME280;19045;52.268;10.506;2023-02-04T12:21:50;102763.72;;;12.93;38.70
32638;BME280;19045;52.268;10.506;2023-02-04T12:24:17;102763.59;;;14.01;36.92
32638;BME280;19045;52.268;10.506;2023-02-04T12:26:43;102764.59;;;14.97;36.31
32638;BME280;19045;52.268;10.506;2023-02-04T12:29:10;102769.38;;;14.47;36.64
32638;BME280;19045;52.268;10.506;2023-02-04T12:31:38;102763.75;;;17.34;33.12
32638;BME280;19045;52.268;10.506;2023-02-04T12:34:05;102753.41;;;21.00;27.51
32638;BME280;19045;52.268;10.506;2023-02-04T12:36:31;102756.66;;;24.28;23.80
32638;BME280;19045;52.268;10.506;2023-02-04T12:38:58;102758.88;;;23.68;23.95
32638;BME280;19045;52.268;10.506;2023-02-04T12:41:24;102770.84;;;20.84;26.83
32638;BME280;19045;52.268;10.506;2023-02-04T12:43:52;102772.94;;;20.62;27.88
32638;BME280;19045;52.268;10.506;2023-02-04T12:46:20;102771.38;;;23.12;24.86